Time;durP1;ratioP1;P1;durP2;ratioP2;P2;SDS_P1;SDS_P2;PMS_P1;PMS_P2;Temp;Humidity;BMP_temperature;BMP_pressure;BME280_temperature;BME280_humidity;BME280_pressure;Samples;Min_cycle;Max_cycle;Signal;HPM_P1;HPM_P2
2022/09/08 00:00:47;;;;;;;3.73;2.27;;;18.70;99.90;;;;;;4973392;28;20258;-67
2022/09/08 00:03:16;;;;;;;3.17;1.87;;;18.70;99.90;;;;;;4973003;28;20207;-66
2022/09/08 00:05:49;;;;;;;4.73;2.03;;;18.60;99.90;;;;;;4973261;28;20177;-66
2022/09/08 00:08:20;;;;;;;4.03;1.90;;;18.60;99.90;;;;;;4972719;28;20196;-67
2022/09/08 00:10:47;;;;;;;5.40;2.50;;;18.50;99.90;;;;;;4972958;28;20175;-67
2022/09/08 00:13:13;;;;;;;4.83;2.13;;;18.50;99.90;;;;;;4973008;28;20172;-67
2022/09/08 00:15:39;;;;;;;4.03;2.00;;;18.50;99.90;;;;;;4972809;28;20227;-67
2022/09/08 00:18:06;;;;;;;3.47;1.60;;;18.50;99.90;;;;;;4972979;28;20560;-67
2022/09/08 00:20:32;;;;;;;3.80;1.60;;;18.50;99.90;;;;;;4972956;28;20218;-67
2022/09/08 00:22:58;;;;;;;3.97;1.60;;;18.40;99.90;;;;;;4972583;28;20200;-67
2022/09/08 00:25:23;;;;;;;2.90;1.70;;;18.30;99.90;;;;;;4972711;28;20535;-66
2022/09/08 00:27:49;;;;;;;3.90;1.60;;;18.20;99.90;;;;;;4972768;28;20655;-66
2022/09/08 00:30:15;;;;;;;2.60;1.50;;;18.20;99.90;;;;;;4971614;28;20176;-66
2022/09/08 00:32:41;;;;;;;3.70;1.60;;;18.10;99.90;;;;;;4972322;28;20183;-68
2022/09/08 00:35:14;;;;;;;5.47;1.20;;;18.00;99.90;;;;;;4972811;28;20180;-67
2022/09/08 00:37:41;;;;;;;3.83;1.30;;;18.00;99.90;;;;;;4972699;28;20168;-68
2022/09/08 00:40:07;;;;;;;4.17;1.67;;;18.10;99.90;;;;;;4972511;28;20263;-67
2022/09/08 00:42:32;;;;;;;3.10;1.40;;;18.00;99.90;;;;;;4971403;28;20356;-68
2022/09/08 00:44:58;;;;;;;2.13;1.40;;;18.10;99.90;;;;;;4972756;28;20255;-67
2022/09/08 00:47:28;;;;;;;3.10;1.40;;;18.00;99.90;;;;;;4972599;28;20634;-68
2022/09/08 00:50:03;;;;;;;3.60;1.67;;;18.10;99.90;;;;;;4972137;28;20180;-66
2022/09/08 00:52:35;;;;;;;3.63;1.50;;;18.00;99.90;;;;;;4972415;28;20179;-67
2022/09/08 00:55:00;;;;;;;3.57;1.83;;;18.00;99.90;;;;;;4972638;28;20172;-68
2022/09/08 00:57:26;;;;;;;2.73;1.57;;;18.00;99.90;;;;;;4972345;28;20176;-66
2022/09/08 00:59:52;;;;;;;2.77;1.60;;;18.00;99.90;;;;;;4972263;28;20176;-66
2022/09/08 01:02:24;;;;;;;2.90;1.70;;;18.10;99.90;;;;;;4972373;28;20199;-66
2022/09/08 01:05:08;;;;;;;2.57;1.33;;;18.10;99.90;;;;;;4971881;28;20180;-68
2022/09/08 01:13:46;;;;;;;2.90;1.50;;;18.10;99.90;;;;;;4972361;28;20191;-66
2022/09/08 01:16:12;;;;;;;3.80;1.40;;;18.20;99.90;;;;;;4971849;28;20302;-67
2022/09/08 01:18:38;;;;;;;3.00;1.67;;;18.20;99.90;;;;;;4972021;28;20647;-66
2022/09/08 01:21:16;;;;;;;2.43;1.40;;;18.20;99.90;;;;;;4971801;28;20229;-67
2022/09/08 01:23:58;;;;;;;1.67;1.57;;;18.10;99.90;;;;;;4970681;28;20671;-67
2022/09/08 01:26:57;;;;;;;3.70;1.60;;;18.10;99.90;;;;;;4972009;28;20195;-66
2022/09/08 01:29:23;;;;;;;2.67;1.40;;;18.20;99.90;;;;;;4971900;28;20184;-66
2022/09/08 01:31:52;;;;;;;2.80;1.90;;;18.10;99.90;;;;;;4971965;28;20173;-66
2022/09/08 01:34:17;;;;;;;2.73;1.70;;;18.10;99.90;;;;;;4971593;28;20183;-66
2022/09/08 01:36:43;;;;;;;3.13;1.70;;;18.10;99.90;;;;;;4971900;28;20172;-66
2022/09/08 01:39:09;;;;;;;4.97;2.07;;;18.10;99.90;;;;;;4971588;28;20184;-66
2022/09/08 01:41:34;;;;;;;2.97;2.63;;;18.10;99.90;;;;;;4971831;28;20241;-67
2022/09/08 01:44:00;;;;;;;7.47;3.40;;;18.20;99.90;;;;;;4970603;28;20215;-66
2022/09/08 01:46:26;;;;;;;4.17;2.77;;;18.10;99.90;;;;;;4971686;28;20262;-66
2022/09/08 01:48:52;;;;;;;4.50;3.17;;;18.20;99.90;;;;;;4971329;28;20270;-67
2022/09/08 01:51:18;;;;;;;7.27;3.43;;;18.10;99.90;;;;;;4971718;28;20178;-66
2022/09/08 01:53:43;;;;;;;5.37;3.60;;;18.10;99.90;;;;;;4971534;28;20224;-66
2022/09/08 01:56:09;;;;;;;6.03;3.77;;;18.10;99.90;;;;;;4970356;28;20183;-66
2022/09/08 01:58:35;;;;;;;3.83;3.33;;;18.10;99.90;;;;;;4971681;28;20663;-66
2022/09/08 02:01:01;;;;;;;6.83;3.57;;;18.00;99.90;;;;;;4971474;28;20168;-66
2022/09/08 02:03:27;;;;;;;4.73;3.23;;;18.00;99.90;;;;;;4970996;28;20211;-66
2022/09/08 02:05:52;;;;;;;5.23;3.50;;;18.00;99.90;;;;;;4971553;28;20172;-66
2022/09/08 02:08:18;;;;;;;6.40;3.30;;;17.90;99.90;;;;;;4971287;28;20188;-66
2022/09/08 02:10:53;;;;;;;8.47;3.43;;;18.00;99.90;;;;;;4971319;28;20655;-66
2022/09/08 02:13:18;;;;;;;6.43;3.60;;;18.00;99.90;;;;;;4971488;28;20179;-67
2022/09/08 02:15:44;;;;;;;5.83;3.50;;;18.10;99.90;;;;;;4971079;28;20226;-66
2022/09/08 02:18:09;;;;;;;6.13;3.60;;;18.00;99.90;;;;;;4970947;28;20172;-67
2022/09/08 02:20:35;;;;;;;6.20;3.37;;;18.00;99.90;;;;;;4971353;28;20560;-67
2022/09/08 02:23:01;;;;;;;6.17;3.37;;;18.00;99.90;;;;;;4971183;28;20286;-68
2022/09/08 02:25:27;;;;;;;7.17;3.30;;;18.10;99.90;;;;;;4971197;28;20233;-66
2022/09/08 02:27:53;;;;;;;5.40;3.33;;;18.10;99.90;;;;;;4971262;28;20578;-66
2022/09/08 02:30:19;;;;;;;8.70;3.50;;;18.20;99.90;;;;;;4971069;28;20164;-67
2022/09/08 02:32:44;;;;;;;5.03;3.40;;;18.10;99.90;;;;;;4971195;28;20261;-66
2022/09/08 02:35:10;;;;;;;4.97;3.13;;;18.10;99.90;;;;;;4971249;28;20203;-66
2022/09/08 02:37:35;;;;;;;5.53;3.73;;;18.10;99.90;;;;;;4971107;28;20188;-66
2022/09/08 02:40:03;;;;;;;11.77;4.90;;;18.10;99.90;;;;;;4970741;28;20188;-67
2022/09/08 02:42:29;;;;;;;6.60;4.13;;;18.10;99.90;;;;;;4970953;28;20210;-67
2022/09/08 02:44:54;;;;;;;7.37;4.70;;;18.00;99.90;;;;;;4970913;28;20251;-67
2022/09/08 02:47:20;;;;;;;7.83;4.60;;;17.80;99.90;;;;;;4970684;28;20176;-67
2022/09/08 02:49:45;;;;;;;8.87;5.00;;;17.80;99.90;;;;;;4970828;28;20176;-67
2022/09/08 02:52:11;;;;;;;7.03;4.63;;;17.70;99.90;;;;;;4970873;28;20275;-67
2022/09/08 02:54:37;;;;;;;7.40;5.03;;;17.60;99.90;;;;;;4972072;28;20184;-67
2022/09/08 02:57:03;;;;;;;9.60;5.33;;;17.60;99.90;;;;;;4974038;28;20176;-67
2022/09/08 02:59:29;;;;;;;12.17;5.47;;;17.50;99.90;;;;;;4974106;28;20183;-67
2022/09/08 03:01:54;;;;;;;8.00;4.90;;;17.50;99.90;;;;;;4973951;28;20222;-67
2022/09/08 03:04:20;;;;;;;8.13;5.03;;;17.40;99.90;;;;;;4973977;28;20184;-67
2022/09/08 03:06:45;;;;;;;7.87;5.77;;;17.40;99.90;;;;;;4974104;28;20172;-65
2022/09/08 03:09:11;;;;;;;9.87;5.20;;;17.40;99.90;;;;;;4973652;28;20779;-65
2022/09/08 03:11:37;;;;;;;6.50;5.13;;;17.40;99.90;;;;;;4973791;28;20259;-65
2022/09/08 03:14:03;;;;;;;9.03;5.33;;;17.40;99.90;;;;;;4973581;28;20184;-67
2022/09/08 03:16:29;;;;;;;9.00;5.40;;;17.50;99.90;;;;;;4973522;28;20243;-65
2022/09/08 03:18:55;;;;;;;7.07;4.97;;;17.50;99.90;;;;;;4973494;28;20194;-66
2022/09/08 03:21:21;;;;;;;7.10;5.23;;;17.50;99.90;;;;;;4973590;28;20705;-66
2022/09/08 03:23:47;;;;;;;7.07;5.23;;;17.40;99.90;;;;;;4973544;28;20249;-66
2022/09/08 03:26:16;;;;;;;8.73;4.90;;;17.50;99.90;;;;;;4973440;28;20172;-66
2022/09/08 03:28:44;;;;;;;9.90;5.40;;;17.60;99.90;;;;;;4973458;28;20177;-67
2022/09/08 03:31:12;;;;;;;6.27;4.90;;;17.60;99.90;;;;;;4973040;28;20164;-66
2022/09/08 03:33:38;;;;;;;7.30;4.73;;;17.50;99.90;;;;;;4973405;28;20631;-66
2022/09/08 03:36:07;;;;;;;7.27;4.93;;;17.40;99.90;;;;;;4973546;28;20643;-66
2022/09/08 03:38:34;;;;;;;7.83;5.10;;;17.40;99.90;;;;;;4973491;28;20535;-67
2022/09/08 03:40:59;;;;;;;9.07;4.77;;;17.50;99.90;;;;;;4972870;28;20168;-66
2022/09/08 03:43:25;;;;;;;6.77;5.07;;;17.60;99.90;;;;;;4973013;28;20212;-66
2022/09/08 03:45:51;;;;;;;6.87;5.30;;;17.60;99.90;;;;;;4972652;28;20654;-66
2022/09/08 03:48:16;;;;;;;7.73;5.07;;;17.60;99.90;;;;;;4972998;28;20179;-66
2022/09/08 03:50:43;;;;;;;6.17;4.73;;;17.60;99.90;;;;;;4973116;28;20172;-66
2022/09/08 03:53:10;;;;;;;6.53;4.53;;;17.50;99.90;;;;;;4973281;28;20184;-66
2022/09/08 03:55:39;;;;;;;6.90;4.93;;;17.50;99.90;;;;;;4972767;28;20654;-67
2022/09/08 03:58:05;;;;;;;7.53;5.03;;;17.50;99.90;;;;;;4972687;28;20195;-67
2022/09/08 04:00:31;;;;;;;5.77;4.87;;;17.50;99.90;;;;;;4973033;28;20176;-67
2022/09/08 04:02:57;;;;;;;12.63;5.10;;;17.50;99.90;;;;;;4972881;28;20728;-67
2022/09/08 04:05:22;;;;;;;7.87;5.30;;;17.50;99.90;;;;;;4970381;28;20631;-67
2022/09/08 04:07:48;;;;;;;6.87;5.37;;;17.40;99.90;;;;;;4972350;28;20204;-67
2022/09/08 04:10:15;;;;;;;8.57;4.80;;;17.30;99.90;;;;;;4972907;28;20257;-67
2022/09/08 04:12:41;;;;;;;4.97;4.43;;;17.30;99.90;;;;;;4972327;28;20169;-68
2022/09/08 04:15:08;;;;;;;7.20;4.90;;;17.30;99.90;;;;;;4972323;28;20702;-67
2022/09/08 04:17:35;;;;;;;8.20;5.43;;;17.20;99.90;;;;;;4972672;28;20172;-67
2022/09/08 04:20:01;;;;;;;10.03;5.43;;;17.30;99.90;;;;;;4972984;28;20169;-67
2022/09/08 04:22:27;;;;;;;6.40;4.57;;;17.30;99.90;;;;;;4972615;28;20318;-67
2022/09/08 04:24:52;;;;;;;6.40;4.50;;;17.30;99.90;;;;;;4971980;28;20191;-67
2022/09/08 04:27:18;;;;;;;7.20;4.50;;;17.30;99.90;;;;;;4971993;28;20642;-67
2022/09/08 04:29:45;;;;;;;7.77;4.37;;;17.20;99.90;;;;;;4972905;28;20296;-66
2022/09/08 04:32:10;;;;;;;5.87;4.73;;;17.20;99.90;;;;;;4972200;28;20219;-67
2022/09/08 04:34:36;;;;;;;6.73;4.30;;;17.20;99.90;;;;;;4972329;28;20613;-67
2022/09/08 04:37:03;;;;;;;8.20;5.13;;;17.20;99.90;;;;;;4972223;28;20180;-67
2022/09/08 04:39:30;;;;;;;7.70;5.40;;;17.10;99.90;;;;;;4972019;28;20180;-67
2022/09/08 04:41:55;;;;;;;9.20;5.13;;;17.00;99.90;;;;;;4971867;28;20261;-67
2022/09/08 04:44:21;;;;;;;8.20;5.33;;;17.00;99.90;;;;;;4972390;28;20184;-67
2022/09/08 04:46:47;;;;;;;7.77;4.87;;;16.90;99.90;;;;;;4971998;28;20214;-67
2022/09/08 04:49:12;;;;;;;10.00;5.00;;;16.90;99.90;;;;;;4972374;28;20277;-67
2022/09/08 04:51:39;;;;;;;7.53;5.40;;;16.90;99.90;;;;;;4971657;28;20179;-67
2022/09/08 04:54:05;;;;;;;8.20;4.93;;;16.90;99.90;;;;;;4969858;28;20176;-67
2022/09/08 04:56:31;;;;;;;10.63;5.83;;;16.90;99.90;;;;;;4971550;28;20172;-67
2022/09/08 04:58:59;;;;;;;8.80;5.43;;;16.90;99.90;;;;;;4970663;28;20658;-67
2022/09/08 05:01:30;;;;;;;7.90;5.93;;;16.80;99.90;;;;;;4971963;28;20225;-67
2022/09/08 05:04:01;;;;;;;9.37;6.60;;;16.90;99.90;;;;;;4971430;28;20212;-66
2022/09/08 05:06:28;;;;;;;13.13;8.67;;;16.80;99.90;;;;;;4970787;28;20176;-67
2022/09/08 05:08:56;;;;;;;18.13;8.10;;;16.80;99.90;;;;;;4971103;28;20202;-67
2022/09/08 05:11:23;;;;;;;12.30;8.63;;;16.90;99.90;;;;;;4970645;28;20188;-67
2022/09/08 05:13:49;;;;;;;11.97;8.97;;;16.80;99.90;;;;;;4970957;28;20168;-67
2022/09/08 05:16:18;;;;;;;13.90;11.50;;;16.90;99.90;;;;;;4970867;28;20345;-67
2022/09/08 05:18:53;;;;;;;14.63;11.23;;;16.80;99.90;;;;;;4970154;28;20616;-67
2022/09/08 05:21:19;;;;;;;13.03;11.23;;;16.70;99.90;;;;;;4971287;28;20266;-66
2022/09/08 05:23:45;;;;;;;16.93;10.87;;;16.60;99.90;;;;;;4970455;28;20207;-66
2022/09/08 05:26:13;;;;;;;14.40;10.43;;;16.60;99.90;;;;;;4970447;28;20176;-66
2022/09/08 05:28:40;;;;;;;13.03;10.13;;;16.60;99.90;;;;;;4970288;28;20273;-67
2022/09/08 05:31:07;;;;;;;14.13;9.17;;;16.50;99.90;;;;;;4970500;28;20207;-68
2022/09/08 05:33:33;;;;;;;11.57;8.20;;;16.50;99.90;;;;;;4970635;28;20640;-67
2022/09/08 05:36:00;;;;;;;10.53;7.67;;;16.50;99.90;;;;;;4968654;28;20202;-67
2022/09/08 05:38:26;;;;;;;10.13;7.10;;;16.60;99.90;;;;;;4970403;28;20236;-68
2022/09/08 05:40:51;;;;;;;8.53;5.87;;;16.60;99.90;;;;;;4970567;28;20247;-68
2022/09/08 05:43:18;;;;;;;8.80;6.13;;;16.60;99.90;;;;;;4968935;28;20218;-68
2022/09/08 05:45:49;;;;;;;8.67;5.17;;;16.60;99.90;;;;;;4969915;28;20168;-67
2022/09/08 05:48:15;;;;;;;7.10;5.80;;;16.70;99.90;;;;;;4969935;28;20176;-67
2022/09/08 05:50:42;;;;;;;6.63;4.70;;;16.90;99.90;;;;;;4970207;28;20175;-67
2022/09/08 05:53:08;;;;;;;7.33;5.00;;;17.50;99.90;;;;;;4970184;28;20187;-68
2022/09/08 05:55:34;;;;;;;6.63;3.90;;;18.40;99.90;;;;;;4969561;28;20176;-69
2022/09/08 05:57:59;;;;;;;7.47;3.97;;;19.50;61.00;;;;;;4969711;28;20179;-68
2022/09/08 06:00:25;;;;;;;4.55;3.85;;;20.30;28.30;;;;;;4969623;28;20215;-68
2022/09/08 06:02:52;;;;;;;5.22;3.45;;;21.20;1.00;;;;;;4969794;28;20218;-69
2022/09/08 06:05:19;;;;;;;5.82;3.25;;;22.20;1.00;;;;;;4970661;28;20168;-69
2022/09/08 06:07:46;;;;;;;5.15;3.33;;;22.30;1.00;;;;;;4969976;28;20580;-69
2022/09/08 06:10:12;;;;;;;5.45;3.15;;;21.70;1.00;;;;;;4969719;28;20585;-69
2022/09/08 06:12:37;;;;;;;9.13;4.00;;;20.90;1.00;;;;;;4970107;28;20203;-69
2022/09/08 06:15:03;;;;;;;7.25;3.70;;;20.40;1.00;;;;;;4968616;28;20220;-68
2022/09/08 06:17:29;;;;;;;4.65;3.85;;;19.90;21.20;;;;;;4969460;28;20168;-68
2022/09/08 06:19:55;;;;;;;5.88;4.05;;;19.60;33.60;;;;;;4969050;28;20243;-66
2022/09/08 06:22:20;;;;;;;4.53;3.88;;;19.30;45.00;;;;;;4969636;28;20200;-68
2022/09/08 06:24:47;;;;;;;5.25;3.78;;;19.00;57.50;;;;;;4969796;28;20168;-68
2022/09/08 06:27:26;;;;;;;8.43;4.50;;;18.80;65.00;;;;;;4965115;28;20168;-68
2022/09/08 06:30:07;;;;;;;7.60;4.23;;;18.60;84.20;;;;;;4993068;28;20176;-68
2022/09/08 06:32:39;;;;;;;12.07;4.90;;;18.50;92.70;;;;;;4998706;28;20206;-68
2022/09/08 06:35:24;;;;;;;8.83;4.70;;;18.40;98.00;;;;;;4958949;28;20309;-67
2022/09/08 06:37:57;;;;;;;8.00;4.33;;;18.20;98.40;;;;;;4980052;28;20545;-67
2022/09/08 06:40:33;;;;;;;5.70;4.00;;;18.10;99.90;;;;;;5039444;28;20215;-66
2022/09/08 06:43:07;;;;;;;5.93;4.10;;;17.90;99.90;;;;;;4990351;28;20253;-67
2022/09/08 06:45:42;;;;;;;8.10;4.70;;;17.90;99.90;;;;;;5023039;28;20172;-69
2022/09/08 06:48:32;;;;;;;5.83;4.20;;;18.00;99.90;;;;;;5023579;28;20171;-68
2022/09/08 06:51:13;;;;;;;6.70;4.27;;;18.10;99.90;;;;;;5091151;28;20176;-68
2022/09/08 06:53:51;;;;;;;6.43;3.93;;;18.10;96.20;;;;;;5025425;28;20225;-68
2022/09/08 06:56:47;;;;;;;7.87;4.10;;;18.50;99.90;;;;;;5017968;28;20198;-69
2022/09/08 06:59:33;;;;;;;7.03;4.00;;;19.00;67.80;;;;;;4961997;28;20183;-69
2022/09/08 07:02:48;;;;;;;7.20;4.00;;;19.10;50.20;;;;;;5037405;28;20184;-70
2022/09/08 07:05:47;;;;;;;5.97;3.80;;;19.10;52.50;;;;;;5035603;28;20204;-69
2022/09/08 07:08:25;;;;;;;6.63;3.85;;;19.40;47.30;;;;;;5051372;28;20212;-70
2022/09/08 07:11:01;;;;;;;10.13;3.80;;;20.00;16.90;;;;;;5051212;28;20649;-69
2022/09/08 07:13:40;;;;;;;7.28;3.45;;;20.70;1.00;;;;;;5051920;28;20347;-70
2022/09/08 07:16:37;;;;;;;6.70;3.33;;;22.70;1.00;;;;;;5032353;28;20240;-70
2022/09/08 07:19:24;;;;;;;5.55;3.30;;;23.60;1.00;;;;;;5015277;28;20472;-70
2022/09/08 07:22:00;;;;;;;4.57;2.90;;;23.50;1.00;;;;;;5007077;28;20182;-71
2022/09/08 07:24:33;;;;;;;6.57;2.90;;;24.10;1.00;;;;;;5015076;28;20212;-69
2022/09/08 07:27:03;;;;;;;4.82;2.97;;;25.30;99.90;;;;;;5013672;28;20200;-70
2022/09/08 07:29:46;;;;;;;3.45;2.50;;;26.10;99.90;;;;;;5028132;28;20194;-70
2022/09/08 07:32:17;;;;;;;3.92;2.75;;;27.30;99.90;;;;;;5020592;28;20208;-70
2022/09/08 07:35:11;;;;;;;3.20;2.70;;;26.90;25.20;;;;;;5031012;28;20193;-72
2022/09/08 07:37:49;;;;;;;4.57;2.70;;;27.30;1.00;;;;;;5011551;28;20239;-69
2022/09/08 07:40:21;;;;;;;4.15;2.50;;;28.20;1.00;;;;;;5029815;28;20178;-70
2022/09/08 07:42:58;;;;;;;5.10;2.45;;;27.80;1.00;;;;;;5003813;28;20224;-71
2022/09/08 07:46:08;;;;;;;3.33;2.42;;;27.80;1.00;;;;;;4934358;29;20227;-70
2022/09/08 07:48:40;;;;;;;7.03;2.50;;;27.60;1.00;;;;;;4945146;28;20189;-71
2022/09/08 07:51:13;;;;;;;5.18;2.70;;;27.40;99.90;;;;;;4942915;28;20193;-71
2022/09/08 07:53:41;;;;;;;4.22;2.47;;;27.50;1.00;;;;;;5015880;28;20281;-71
2022/09/08 07:56:13;;;;;;;5.90;2.40;;;28.00;1.00;;;;;;4955103;28;20637;-72
2022/09/08 07:58:50;;;;;;;3.42;2.60;;;28.10;1.00;;;;;;4946649;28;20194;-70
2022/09/08 08:01:36;;;;;;;6.22;3.10;;;28.80;99.90;;;;;;5015515;28;20252;-70
2022/09/08 08:04:35;;;;;;;8.18;3.28;;;29.30;1.00;;;;;;5016361;28;20213;-71
2022/09/08 08:07:07;;;;;;;8.52;4.25;;;27.60;99.90;;;;;;4961360;28;20184;-70
2022/09/08 08:09:36;;;;;;;6.20;3.75;;;25.80;99.90;;;;;;4935378;29;20220;-69
2022/09/08 08:12:07;;;;;;;7.97;3.97;;;24.10;1.00;;;;;;4970754;28;20173;-69
2022/09/08 08:14:46;;;;;;;4.32;3.05;;;22.50;1.00;;;;;;5012756;28;20219;-70
2022/09/08 08:17:44;;;;;;;6.35;3.42;;;21.70;1.00;;;;;;4985686;28;20607;-71
2022/09/08 08:20:45;;;;;;;8.25;3.47;;;21.30;1.00;;;;;;4962652;28;20235;-71
2022/09/08 08:23:48;;;;;;;5.75;3.13;;;20.90;1.00;;;;;;4959739;28;20673;-68
2022/09/08 08:26:16;;;;;;;6.35;3.30;;;20.90;1.00;;;;;;4894476;29;20230;-70
2022/09/08 08:28:43;;;;;;;8.85;3.33;;;20.90;1.00;;;;;;4881000;29;20174;-69
2022/09/08 08:31:33;;;;;;;7.65;3.10;;;20.90;1.00;;;;;;4883500;29;20190;-71
2022/09/08 08:34:06;;;;;;;7.45;3.20;;;20.90;1.00;;;;;;4894725;29;20540;-70
2022/09/08 08:36:39;;;;;;;6.13;2.60;;;21.00;1.00;;;;;;4892789;29;20182;-70
2022/09/08 08:39:22;;;;;;;7.85;2.95;;;20.90;1.00;;;;;;4883689;29;20218;-70
2022/09/08 08:42:29;;;;;;;3.17;2.17;;;20.70;1.00;;;;;;4885193;29;20190;-71
2022/09/08 08:45:29;;;;;;;3.53;1.85;;;21.20;1.00;;;;;;4879545;29;20227;-69
2022/09/08 08:48:12;;;;;;;4.85;2.08;;;21.40;1.00;;;;;;4839356;29;20215;-76
2022/09/08 08:50:57;;;;;;;6.43;2.47;;;22.20;1.00;;;;;;4841319;29;20295;-71
2022/09/08 08:53:34;;;;;;;8.13;3.22;;;22.10;1.00;;;;;;4833839;29;20206;-70
2022/09/08 08:56:15;;;;;;;5.82;2.70;;;21.60;1.00;;;;;;4839108;29;20212;-72
2022/09/08 08:59:18;;;;;;;8.40;3.15;;;22.60;1.00;;;;;;4884192;29;20685;-71
2022/09/08 09:01:55;;;;;;;7.28;2.90;;;24.90;1.00;;;;;;4919913;29;20202;-71
2022/09/08 09:04:48;;;;;;;4.43;2.42;;;26.10;1.00;;;;;;4956617;28;20221;-71
2022/09/08 09:07:19;;;;;;;4.95;2.15;;;26.60;99.90;;;;;;4938074;28;20194;-70
2022/09/08 09:10:03;;;;;;;4.07;2.17;;;26.80;99.90;;;;;;4973442;28;20239;-70
2022/09/08 09:12:50;;;;;;;4.80;2.78;;;26.10;99.90;;;;;;4920617;29;20193;-71
2022/09/08 09:15:43;;;;;;;5.50;1.98;;;25.80;99.90;;;;;;4912754;28;20236;-70
2022/09/08 09:18:17;;;;;;;4.75;2.10;;;26.30;99.90;;;;;;4979120;28;20192;-72
2022/09/08 09:21:00;;;;;;;3.17;1.83;;;26.50;99.90;;;;;;4930293;28;20177;-73
2022/09/08 09:23:54;;;;;;;4.53;1.60;;;26.20;99.90;;;;;;4962000;28;20278;-72
2022/09/08 09:26:22;;;;;;;9.05;2.65;;;25.90;1.00;;;;;;4973479;28;20242;-72
2022/09/08 09:29:06;;;;;;;8.18;2.17;;;25.90;1.00;;;;;;4948250;28;20181;-73
2022/09/08 09:31:35;;;;;;;5.88;2.03;;;25.60;91.10;;;;;;4950954;28;20595;-71
2022/09/08 09:34:27;;;;;;;14.32;3.25;;;25.20;99.90;;;;;;4939509;28;20267;-72
2022/09/08 09:37:15;;;;;;;5.22;2.13;;;25.00;1.00;;;;;;4948110;28;20193;-70
2022/09/08 09:40:22;;;;;;;2.85;1.75;;;26.00;1.00;;;;;;4948727;28;20184;-70
2022/09/08 09:43:11;;;;;;;2.15;1.90;;;25.70;1.00;;;;;;4892498;29;20222;-71
2022/09/08 09:45:49;;;;;;;6.00;2.33;;;26.60;1.00;;;;;;4902047;29;20271;-69
2022/09/08 09:48:38;;;;;;;2.75;1.80;;;28.20;22.00;;;;;;4904050;29;20190;-71
2022/09/08 09:51:20;;;;;;;4.93;2.20;;;28.20;1.00;;;;;;4890976;28;20268;-72
2022/09/08 09:54:23;;;;;;;2.33;2.00;;;26.80;77.30;;;;;;4879283;28;20195;-70
2022/09/08 09:57:06;;;;;;;4.25;1.90;;;27.40;99.90;;;;;;4890586;29;20672;-70
2022/09/08 10:00:07;;;;;;;4.50;2.10;;;27.70;1.00;;;;;;4897120;28;20194;-72
2022/09/08 10:03:06;;;;;;;5.68;2.03;;;27.60;1.00;;;;;;4913397;28;20683;-71
2022/09/08 10:06:10;;;;;;;4.53;2.13;;;27.80;1.00;;;;;;4932994;28;20177;-70
2022/09/08 10:09:00;;;;;;;3.92;2.10;;;27.00;1.00;;;;;;4939077;28;20203;-70
2022/09/08 10:11:44;;;;;;;3.83;2.70;;;27.00;1.00;;;;;;4930810;28;20295;-71
2022/09/08 10:14:59;;;;;;;8.25;1.98;;;26.80;1.00;;;;;;4926996;28;20196;-73
2022/09/08 10:17:43;;;;;;;3.00;1.48;;;25.70;99.90;;;;;;4933435;29;20275;-72
2022/09/08 10:20:47;;;;;;;3.78;1.85;;;24.40;1.00;;;;;;4970715;28;20650;-69
2022/09/08 10:23:32;;;;;;;5.47;1.90;;;24.60;48.60;;;;;;5025907;28;20241;-70
2022/09/08 10:26:25;;;;;;;6.68;2.10;;;24.50;99.90;;;;;;5022301;28;20650;-71
2022/09/08 10:28:56;;;;;;;3.90;1.85;;;24.20;99.90;;;;;;5005180;28;20184;-70
2022/09/08 10:31:39;;;;;;;4.55;1.80;;;24.30;1.00;;;;;;5007995;28;20252;-70
2022/09/08 10:34:38;;;;;;;8.38;2.10;;;25.50;1.00;;;;;;5006697;28;20210;-70
2022/09/08 10:37:26;;;;;;;4.95;2.70;;;26.80;99.90;;;;;;5008100;28;20242;-72
2022/09/08 10:40:24;;;;;;;3.80;1.80;;;27.30;1.00;;;;;;5006148;28;20192;-70
2022/09/08 10:42:56;;;;;;;3.75;2.00;;;28.00;1.00;;;;;;5004325;28;20799;-71
2022/09/08 10:45:34;;;;;;;4.95;2.20;;;27.10;1.00;;;;;;5015677;28;20644;-70
2022/09/08 10:48:30;;;;;;;4.13;1.67;;;26.00;99.90;;;;;;5027802;28;20511;-71
2022/09/08 10:51:36;;;;;;;6.63;2.20;;;25.20;1.00;;;;;;5059179;28;20242;-72
2022/09/08 10:54:07;;;;;;;8.90;2.42;;;25.30;99.90;;;;;;5039104;28;20164;-72
2022/09/08 10:56:35;;;;;;;5.82;2.05;;;25.50;27.80;;;;;;5001824;28;20508;-74
2022/09/08 10:59:39;;;;;;;5.55;2.30;;;25.10;99.90;;;;;;5003776;28;20574;-73
2022/09/08 11:02:20;;;;;;;6.28;2.08;;;25.10;99.90;;;;;;5023746;28;20683;-74
2022/09/08 11:05:10;;;;;;;6.07;2.00;;;25.10;99.90;;;;;;5059918;28;20198;-73
2022/09/08 11:07:51;;;;;;;4.15;1.90;;;25.10;1.00;;;;;;5023843;28;20189;-74
2022/09/08 11:10:29;;;;;;;5.18;2.13;;;25.20;1.00;;;;;;5017837;28;20304;-70
2022/09/08 11:13:13;;;;;;;5.13;2.10;;;25.70;1.00;;;;;;5059382;28;20196;-71
2022/09/08 11:16:15;;;;;;;6.13;2.15;;;26.50;1.00;;;;;;5025023;28;20714;-72
2022/09/08 11:18:44;;;;;;;6.47;2.03;;;26.60;1.00;;;;;;5005539;28;20202;-75
2022/09/08 11:21:22;;;;;;;5.40;1.92;;;26.10;17.40;;;;;;5056015;28;20172;-72
2022/09/08 11:24:15;;;;;;;5.72;2.38;;;25.80;1.00;;;;;;5028422;28;20208;-71
2022/09/08 11:26:57;;;;;;;4.88;2.55;;;26.50;27.90;;;;;;5070897;28;20287;-73
2022/09/08 11:29:30;;;;;;;7.32;2.20;;;27.00;1.00;;;;;;5030193;28;20679;-73
2022/09/08 11:32:12;;;;;;;4.53;2.40;;;26.40;1.00;;;;;;5073605;28;20203;-73
2022/09/08 11:34:57;;;;;;;7.93;1.92;;;25.80;1.00;;;;;;5003988;28;20192;-75
2022/09/08 11:37:49;;;;;;;6.28;2.35;;;25.20;1.00;;;;;;4963012;28;20213;-72
2022/09/08 11:40:36;;;;;;;8.07;2.35;;;24.50;1.00;;;;;;5023272;28;20181;-72
2022/09/08 11:43:10;;;;;;;5.32;2.00;;;24.00;1.00;;;;;;4982897;28;20751;-72
2022/09/08 11:46:00;;;;;;;4.82;2.00;;;23.90;11.80;;;;;;5018548;28;20192;-70
2022/09/08 11:48:44;;;;;;;5.88;2.15;;;23.60;1.00;;;;;;5029514;28;20252;-69
2022/09/08 11:51:35;;;;;;;7.97;1.85;;;23.40;1.00;;;;;;4953961;28;20184;-71
2022/09/08 11:54:06;;;;;;;4.75;1.83;;;22.90;99.90;;;;;;5015742;28;20682;-70
2022/09/08 11:56:54;;;;;;;7.10;2.45;;;22.60;74.90;;;;;;4986728;28;20279;-70
2022/09/08 11:59:57;;;;;;;5.25;2.47;;;22.10;99.90;;;;;;4949987;28;20221;-71
2022/09/08 12:02:25;;;;;;;8.52;2.67;;;22.10;99.90;;;;;;4951779;28;20169;-72
2022/09/08 12:05:23;;;;;;;5.07;2.35;;;22.40;99.90;;;;;;4964736;28;20176;-71
2022/09/08 12:08:07;;;;;;;7.05;2.70;;;23.10;99.90;;;;;;4883410;29;20243;-71
2022/09/08 12:10:50;;;;;;;8.65;2.63;;;23.10;1.00;;;;;;4887909;29;20237;-72
2022/09/08 12:13:29;;;;;;;4.55;2.17;;;23.00;99.90;;;;;;4881784;29;20178;-70
2022/09/08 12:16:06;;;;;;;8.95;2.40;;;22.90;1.00;;;;;;4888125;29;20219;-71
2022/09/08 12:18:44;;;;;;;8.65;2.97;;;22.90;1.00;;;;;;4906580;29;20189;-73
2022/09/08 12:21:46;;;;;;;10.05;3.05;;;23.10;1.00;;;;;;4908256;29;20182;-73
2022/09/08 12:24:47;;;;;;;10.95;3.40;;;23.10;1.00;;;;;;4899483;28;20229;-70
2022/09/08 12:27:39;;;;;;;8.70;2.75;;;22.40;1.00;;;;;;4890350;29;20188;-68
2022/09/08 12:30:18;;;;;;;6.25;2.70;;;22.00;1.00;;;;;;4906418;29;20340;-69
2022/09/08 12:32:55;;;;;;;7.47;2.85;;;21.90;1.00;;;;;;4906119;29;20208;-71
2022/09/08 12:35:37;;;;;;;7.78;3.08;;;21.70;1.00;;;;;;4910922;28;20628;-70
2022/09/08 12:38:33;;;;;;;10.10;3.63;;;21.30;1.00;;;;;;4909658;29;20197;-68
2022/09/08 12:41:18;;;;;;;8.27;3.20;;;21.00;27.60;;;;;;4909245;29;20269;-68
2022/09/08 12:43:44;;;;;;;9.10;3.95;;;20.90;38.60;;;;;;4954849;28;20699;-67
2022/09/08 12:46:13;;;;;;;12.00;3.13;;;20.70;78.30;;;;;;5006418;28;20175;-69
2022/09/08 12:48:56;;;;;;;10.35;3.70;;;20.60;70.40;;;;;;5019862;28;20180;-68
2022/09/08 12:51:27;;;;;;;6.05;2.80;;;20.30;74.70;;;;;;5004302;28;20163;-69
2022/09/08 12:54:14;;;;;;;8.25;2.85;;;20.10;51.10;;;;;;5026077;28;20678;-68
2022/09/08 12:57:21;;;;;;;9.40;3.00;;;19.90;79.60;;;;;;4998616;28;20176;-70
2022/09/08 12:59:52;;;;;;;6.95;2.88;;;19.60;83.90;;;;;;5004978;28;20366;-68
2022/09/08 13:02:34;;;;;;;7.65;3.58;;;19.30;92.50;;;;;;4998341;28;20176;-68
2022/09/08 13:05:27;;;;;;;10.47;3.63;;;19.00;99.90;;;;;;4993844;28;20175;-72
2022/09/08 13:08:36;;;;;;;9.77;3.27;;;18.80;99.90;;;;;;4999966;28;20276;-69
2022/09/08 13:11:16;;;;;;;8.40;2.87;;;18.60;99.90;;;;;;4981851;28;20180;-70
2022/09/08 13:13:45;;;;;;;4.60;2.40;;;18.40;99.90;;;;;;4970718;28;20188;-69
2022/09/08 13:16:23;;;;;;;5.47;2.80;;;18.40;99.90;;;;;;5011148;28;20304;-69
2022/09/08 13:19:09;;;;;;;8.90;2.67;;;18.60;99.90;;;;;;5018068;28;20215;-71
2022/09/08 13:22:16;;;;;;;4.77;2.27;;;18.90;99.90;;;;;;5020033;28;20191;-70
2022/09/08 13:24:48;;;;;;;9.60;3.60;;;19.30;99.90;;;;;;4977195;28;20196;-71
2022/09/08 13:27:31;;;;;;;4.50;2.97;;;19.80;99.90;;;;;;4982868;28;20202;-68
2022/09/08 13:30:03;;;;;;;6.70;3.00;;;20.20;99.70;;;;;;4982583;28;20183;-69
2022/09/08 13:32:49;;;;;;;5.40;2.55;;;20.70;68.50;;;;;;4976144;28;20191;-70
2022/09/08 13:35:29;;;;;;;4.82;2.63;;;21.20;36.40;;;;;;4966220;28;20382;-69
2022/09/08 13:38:16;;;;;;;5.28;2.85;;;21.30;10.20;;;;;;5029320;28;20357;-68